createdAt,value
2022-12-15T00:00:09.313Z,-5.69
2022-12-15T00:01:08.374Z,-5.69
2022-12-15T00:02:08.339Z,-5.69
2022-12-15T00:03:08.443Z,-5.69
2022-12-15T00:04:08.280Z,-5.69
2022-12-15T00:05:08.286Z,-5.68
2022-12-15T00:06:08.252Z,-5.67
2022-12-15T00:07:08.331Z,-5.66
2022-12-15T00:08:08.247Z,-5.65
2022-12-15T00:09:13.926Z,-5.65
2022-12-15T00:10:09.212Z,-5.65
2022-12-15T00:11:08.200Z,-5.65
2022-12-15T00:12:08.214Z,-5.67
2022-12-15T00:13:08.191Z,-5.68
2022-12-15T00:14:08.186Z,-5.69
2022-12-15T00:15:08.143Z,-5.71
2022-12-15T00:16:08.248Z,-5.72
2022-12-15T00:17:08.141Z,-5.73
2022-12-15T00:18:08.131Z,-5.74
2022-12-15T00:19:08.124Z,-5.74
2022-12-15T00:20:08.121Z,-5.75
2022-12-15T00:21:08.088Z,-5.76
2022-12-15T00:22:08.107Z,-5.77
2022-12-15T00:23:08.059Z,-5.77
2022-12-15T00:24:08.063Z,-5.78
2022-12-15T00:25:08.052Z,-5.79
2022-12-15T00:26:08.059Z,-5.80
2022-12-15T00:27:08.026Z,-5.81
2022-12-15T00:28:08.043Z,-5.82
2022-12-15T00:29:08.007Z,-5.82
2022-12-15T00:30:08.024Z,-5.83
2022-12-15T00:31:08.021Z,-5.83
2022-12-15T00:32:07.980Z,-5.84
2022-12-15T00:33:07.961Z,-5.84
2022-12-15T00:34:07.949Z,-5.85
2022-12-15T00:35:07.925Z,-5.85
2022-12-15T00:36:07.957Z,-5.86
2022-12-15T00:37:07.901Z,-5.87
2022-12-15T00:38:07.909Z,-5.88
2022-12-15T00:39:07.886Z,-5.89
2022-12-15T00:40:07.891Z,-5.89
2022-12-15T00:41:07.880Z,-5.90
2022-12-15T00:42:07.874Z,-5.90
2022-12-15T00:43:07.846Z,-5.91
2022-12-15T00:44:07.841Z,-5.92
2022-12-15T00:45:07.820Z,-5.94
2022-12-15T00:46:07.881Z,-5.96
2022-12-15T00:47:07.856Z,-5.97
2022-12-15T00:48:07.800Z,-5.99
2022-12-15T00:49:07.776Z,-6.00
2022-12-15T00:50:07.781Z,-6.01
2022-12-15T00:51:07.756Z,-6.02
2022-12-15T00:52:07.781Z,-6.03
2022-12-15T00:53:07.728Z,-6.04
2022-12-15T00:54:10.731Z,-6.05
2022-12-15T00:55:08.717Z,-6.05
2022-12-15T00:56:07.706Z,-6.05
2022-12-15T00:57:07.707Z,-6.04
2022-12-15T00:58:07.690Z,-6.04
2022-12-15T00:59:07.676Z,-6.03
2022-12-15T01:00:07.674Z,-6.03
2022-12-15T01:01:07.646Z,-6.02
2022-12-15T01:02:07.713Z,-6.02
2022-12-15T01:03:07.868Z,-6.02
2022-12-15T01:04:07.668Z,-6.02
2022-12-15T01:05:07.628Z,-6.02
2022-12-15T01:06:07.622Z,-6.02
2022-12-15T01:07:07.601Z,-6.02
2022-12-15T01:08:07.601Z,-6.01
2022-12-15T01:09:07.577Z,-6.01
2022-12-15T01:10:07.572Z,-6.01
2022-12-15T01:11:07.532Z,-6.01
2022-12-15T01:12:07.568Z,-6.01
2022-12-15T01:13:07.534Z,-6.01
2022-12-15T01:14:07.550Z,-6.01
2022-12-15T01:15:07.499Z,-6.00
2022-12-15T01:16:07.584Z,-6.00
2022-12-15T01:17:07.470Z,-6.01
2022-12-15T01:18:07.480Z,-6.01
2022-12-15T01:19:07.450Z,-6.01
2022-12-15T01:20:07.460Z,-6.01
2022-12-15T01:21:07.423Z,-6.01
2022-12-15T01:22:07.426Z,-6.02
2022-12-15T01:23:07.397Z,-6.02
2022-12-15T01:24:07.406Z,-6.02
2022-12-15T01:25:07.388Z,-6.02
2022-12-15T01:26:07.380Z,-6.03
2022-12-15T01:27:07.356Z,-6.05
2022-12-15T01:28:07.360Z,-6.07
2022-12-15T01:29:07.344Z,-6.09
2022-12-15T01:30:07.331Z,-6.09
2022-12-15T01:31:07.337Z,-6.10
2022-12-15T01:32:07.324Z,-6.11
2022-12-15T01:33:07.289Z,-6.11
2022-12-15T01:34:07.303Z,-6.12
2022-12-15T01:35:07.267Z,-6.12
2022-12-15T01:36:07.287Z,-6.13
2022-12-15T01:37:07.249Z,-6.15
2022-12-15T01:38:07.248Z,-6.18
2022-12-15T01:39:07.227Z,-6.19
2022-12-15T01:40:07.243Z,-6.21
2022-12-15T01:41:07.210Z,-6.22
2022-12-15T01:42:07.217Z,-6.23
2022-12-15T01:43:07.185Z,-6.26
2022-12-15T01:44:07.192Z,-6.29
2022-12-15T01:45:07.162Z,-6.34
2022-12-15T01:46:07.154Z,-6.38
2022-12-15T01:47:07.194Z,-6.40
2022-12-15T01:48:07.147Z,-6.41
2022-12-15T01:49:07.114Z,-6.40
2022-12-15T01:50:07.119Z,-6.40
2022-12-15T01:51:07.088Z,-6.40
2022-12-15T01:52:07.100Z,-6.40
2022-12-15T01:53:07.082Z,-6.40
2022-12-15T01:54:07.103Z,-6.41
2022-12-15T01:55:07.062Z,-6.42
2022-12-15T01:56:07.044Z,-6.44
2022-12-15T01:57:07.028Z,-6.45
2022-12-15T01:58:07.043Z,-6.45
2022-12-15T01:59:07.014Z,-6.46
2022-12-15T02:00:07.013Z,-6.46
2022-12-15T02:01:07.030Z,-6.47
2022-12-15T02:02:07.130Z,-6.47
2022-12-15T02:03:07.070Z,-6.47
2022-12-15T02:04:06.968Z,-6.47
2022-12-15T02:05:06.939Z,-6.47
2022-12-15T02:06:06.940Z,-6.48
2022-12-15T02:07:06.922Z,-6.49
2022-12-15T02:08:06.935Z,-6.50
2022-12-15T02:09:06.889Z,-6.50
2022-12-15T02:10:06.894Z,-6.51
2022-12-15T02:11:06.873Z,-6.51
2022-12-15T02:12:06.881Z,-6.51
2022-12-15T02:13:06.871Z,-6.50
2022-12-15T02:14:06.853Z,-6.49
2022-12-15T02:15:06.833Z,-6.49
2022-12-15T02:16:06.862Z,-6.48
2022-12-15T02:17:06.814Z,-6.48
2022-12-15T02:18:06.831Z,-6.48
2022-12-15T02:19:06.782Z,-6.48
2022-12-15T02:20:06.793Z,-6.48
2022-12-15T02:21:06.758Z,-6.48
2022-12-15T02:22:06.755Z,-6.48
2022-12-15T02:23:06.756Z,-6.49
2022-12-15T02:24:06.763Z,-6.50
2022-12-15T02:25:06.712Z,-6.50
2022-12-15T02:26:06.715Z,-6.50
2022-12-15T02:27:06.696Z,-6.50
2022-12-15T02:28:06.709Z,-6.50
2022-12-15T02:29:06.671Z,-6.50
2022-12-15T02:30:06.701Z,-6.51
2022-12-15T02:31:06.670Z,-6.51
2022-12-15T02:32:06.735Z,-6.53
2022-12-15T02:33:06.630Z,-6.54
2022-12-15T02:34:06.622Z,-6.55
2022-12-15T02:35:06.615Z,-6.55
2022-12-15T02:36:06.625Z,-6.56
2022-12-15T02:37:06.575Z,-6.58
2022-12-15T02:38:06.590Z,-6.59
2022-12-15T02:39:06.561Z,-6.61
2022-12-15T02:40:06.573Z,-6.62
2022-12-15T02:41:06.561Z,-6.62
2022-12-15T02:42:06.548Z,-6.63
2022-12-15T02:43:06.515Z,-6.64
2022-12-15T02:44:06.552Z,-6.64
2022-12-15T02:45:06.498Z,-6.64
2022-12-15T02:46:06.568Z,-6.65
2022-12-15T02:47:06.493Z,-6.65
2022-12-15T02:48:06.484Z,-6.65
2022-12-15T02:49:06.449Z,-6.65
2022-12-15T02:50:06.460Z,-6.65
2022-12-15T02:51:06.431Z,-6.65
2022-12-15T02:52:06.440Z,-6.65
2022-12-15T02:53:06.418Z,-6.66
2022-12-15T02:54:06.415Z,-6.66
2022-12-15T02:55:06.386Z,-6.66
2022-12-15T02:56:06.398Z,-6.65
2022-12-15T02:57:06.361Z,-6.65
2022-12-15T02:58:06.381Z,-6.65
2022-12-15T02:59:06.338Z,-6.64
2022-12-15T03:00:06.340Z,-6.65
2022-12-15T03:01:06.376Z,-6.66
2022-12-15T03:02:06.720Z,-6.68
2022-12-15T03:03:06.407Z,-6.69
2022-12-15T03:04:06.331Z,-6.69
2022-12-15T03:05:06.280Z,-6.69
2022-12-15T03:06:06.281Z,-6.69
2022-12-15T03:07:06.251Z,-6.68
2022-12-15T03:08:06.263Z,-6.67
2022-12-15T03:09:06.247Z,-6.66
2022-12-15T03:10:06.242Z,-6.65
2022-12-15T03:11:06.204Z,-6.65
2022-12-15T03:12:06.210Z,-6.65
2022-12-15T03:13:06.177Z,-6.66
2022-12-15T03:14:06.210Z,-6.65
2022-12-15T03:15:06.181Z,-6.64
2022-12-15T03:16:06.255Z,-6.63
2022-12-15T03:17:06.140Z,-6.62
2022-12-15T03:18:06.138Z,-6.62
2022-12-15T03:19:06.133Z,-6.61
2022-12-15T03:20:06.126Z,-6.61
2022-12-15T03:21:06.117Z,-6.61
2022-12-15T03:22:06.124Z,-6.62
2022-12-15T03:23:06.075Z,-6.62
2022-12-15T03:24:06.104Z,-6.63
2022-12-15T03:25:06.078Z,-6.63
2022-12-15T03:26:06.065Z,-6.64
2022-12-15T03:27:06.077Z,-6.65
2022-12-15T03:28:06.037Z,-6.65
2022-12-15T03:29:06.008Z,-6.66
2022-12-15T03:30:06.046Z,-6.66
2022-12-15T03:31:05.990Z,-6.65
2022-12-15T03:32:06.049Z,-6.65
2022-12-15T03:33:05.983Z,-6.64
2022-12-15T03:34:05.976Z,-6.63
2022-12-15T03:35:05.936Z,-6.62
2022-12-15T03:36:05.957Z,-6.62
2022-12-15T03:37:05.916Z,-6.62
2022-12-15T03:38:05.924Z,-6.63
2022-12-15T03:39:05.890Z,-6.62
2022-12-15T03:40:05.911Z,-6.62
2022-12-15T03:41:05.901Z,-6.62
2022-12-15T03:42:05.884Z,-6.62
2022-12-15T03:43:05.856Z,-6.61
2022-12-15T03:44:05.862Z,-6.60
2022-12-15T03:45:05.833Z,-6.59
2022-12-15T03:46:05.890Z,-6.58
2022-12-15T03:47:05.833Z,-6.57
2022-12-15T03:48:05.820Z,-6.56
2022-12-15T03:49:05.788Z,-6.55
2022-12-15T03:50:05.795Z,-6.54
2022-12-15T03:51:05.777Z,-6.54
2022-12-15T03:52:05.767Z,-6.53
2022-12-15T03:53:05.763Z,-6.53
2022-12-15T03:54:05.740Z,-6.53
2022-12-15T03:55:05.720Z,-6.53
2022-12-15T03:56:05.744Z,-6.53
2022-12-15T03:57:05.711Z,-6.54
2022-12-15T03:58:05.702Z,-6.55
2022-12-15T03:59:05.699Z,-6.56
2022-12-15T04:00:05.684Z,-6.57
2022-12-15T04:01:05.695Z,-6.58
2022-12-15T04:02:05.800Z,-6.60
2022-12-15T04:03:05.742Z,-6.61
2022-12-15T04:04:05.730Z,-6.61
2022-12-15T04:05:05.611Z,-6.61
2022-12-15T04:06:05.610Z,-6.61
2022-12-15T04:07:05.603Z,-6.61
2022-12-15T04:08:05.594Z,-6.61
2022-12-15T04:09:05.600Z,-6.60
2022-12-15T04:10:05.612Z,-6.59
2022-12-15T04:11:05.545Z,-6.58
2022-12-15T04:12:05.553Z,-6.57
2022-12-15T04:13:05.536Z,-6.56
2022-12-15T04:14:05.550Z,-6.55
2022-12-15T04:15:05.503Z,-6.54
2022-12-15T04:16:05.505Z,-6.53
2022-12-15T04:17:05.538Z,-6.52
2022-12-15T04:18:05.483Z,-6.51
2022-12-15T04:19:05.462Z,-6.50
2022-12-15T04:20:05.496Z,-6.49
2022-12-15T04:21:05.437Z,-6.47
2022-12-15T04:22:05.430Z,-6.45
2022-12-15T04:23:05.415Z,-6.44
2022-12-15T04:24:05.418Z,-6.43
2022-12-15T04:25:05.405Z,-6.42
2022-12-15T04:26:05.399Z,-6.42
2022-12-15T04:27:05.381Z,-6.42
2022-12-15T04:28:05.360Z,-6.42
2022-12-15T04:29:05.363Z,-6.42
2022-12-15T04:30:05.358Z,-6.42
2022-12-15T04:31:05.438Z,-6.42
2022-12-15T04:32:05.320Z,-6.42
2022-12-15T04:33:05.326Z,-6.41
2022-12-15T04:34:05.294Z,-6.42
2022-12-15T04:35:05.300Z,-6.42
2022-12-15T04:36:05.283Z,-6.42
2022-12-15T04:37:05.289Z,-6.42
2022-12-15T04:38:05.250Z,-6.41
2022-12-15T04:39:05.249Z,-6.41
2022-12-15T04:40:05.296Z,-6.41
2022-12-15T04:41:05.228Z,-6.41
2022-12-15T04:42:05.217Z,-6.41
2022-12-15T04:43:05.227Z,-6.42
2022-12-15T04:44:05.179Z,-6.42
2022-12-15T04:45:05.194Z,-6.43
2022-12-15T04:46:05.174Z,-6.42
2022-12-15T04:47:05.161Z,-6.41
2022-12-15T04:48:05.157Z,-6.40
2022-12-15T04:49:05.138Z,-6.39
2022-12-15T04:50:05.108Z,-6.39
2022-12-15T04:51:05.126Z,-6.39
2022-12-15T04:52:05.102Z,-6.39
2022-12-15T04:53:05.097Z,-6.39
2022-12-15T04:54:05.112Z,-6.39
2022-12-15T04:55:05.078Z,-6.39
2022-12-15T04:56:05.053Z,-6.39
2022-12-15T04:57:05.064Z,-6.40
2022-12-15T04:58:05.026Z,-6.40
2022-12-15T04:59:05.037Z,-6.40
2022-12-15T05:00:05.106Z,-6.40
2022-12-15T05:01:05.092Z,-6.40
2022-12-15T05:02:05.182Z,-6.40
2022-12-15T05:03:04.994Z,-6.41
2022-12-15T05:04:05.051Z,-6.41
2022-12-15T05:05:05.007Z,-6.42
2022-12-15T05:06:04.939Z,-6.42
2022-12-15T05:07:04.933Z,-6.42
2022-12-15T05:08:04.917Z,-6.42
2022-12-15T05:09:04.913Z,-6.43
2022-12-15T05:10:09.535Z,-6.42
2022-12-15T05:11:05.929Z,-6.42
2022-12-15T05:12:04.878Z,-6.42
2022-12-15T05:13:04.893Z,-6.42
2022-12-15T05:14:04.850Z,-6.41
2022-12-15T05:15:04.854Z,-6.41
2022-12-15T05:16:04.917Z,-6.41
2022-12-15T05:17:04.880Z,-6.40
2022-12-15T05:18:04.822Z,-6.39
2022-12-15T05:19:04.816Z,-6.39
2022-12-15T05:20:04.811Z,-6.39
2022-12-15T05:21:04.804Z,-6.39
2022-12-15T05:22:04.777Z,-6.39
2022-12-15T05:23:04.767Z,-6.39
2022-12-15T05:24:04.733Z,-6.39
2022-12-15T05:25:04.744Z,-6.38
2022-12-15T05:26:04.720Z,-6.38
2022-12-15T05:27:04.712Z,-6.37
2022-12-15T05:28:04.700Z,-6.36
2022-12-15T05:29:04.703Z,-6.35
2022-12-15T05:30:04.675Z,-6.34
2022-12-15T05:31:04.723Z,-6.33
2022-12-15T05:32:04.647Z,-6.32
2022-12-15T05:33:04.672Z,-6.31
2022-12-15T05:34:05.710Z,-6.30
2022-12-15T05:35:04.634Z,-6.29
2022-12-15T05:36:04.605Z,-6.28
2022-12-15T05:37:04.603Z,-6.27
2022-12-15T05:38:04.591Z,-6.27
2022-12-15T05:39:04.603Z,-6.27
2022-12-15T05:40:04.577Z,-6.26
2022-12-15T05:41:04.564Z,-6.26
2022-12-15T05:42:04.543Z,-6.26
2022-12-15T05:43:04.548Z,-6.25
2022-12-15T05:44:04.536Z,-6.24
2022-12-15T05:45:04.545Z,-6.23
2022-12-15T05:46:04.564Z,-6.22
2022-12-15T05:47:04.508Z,-6.21
2022-12-15T05:48:04.475Z,-6.20
2022-12-15T05:49:04.479Z,-6.19
2022-12-15T05:50:04.472Z,-6.18
2022-12-15T05:51:04.470Z,-6.18
2022-12-15T05:52:04.432Z,-6.17
2022-12-15T05:53:04.433Z,-6.16
2022-12-15T05:54:04.418Z,-6.15
2022-12-15T05:55:04.416Z,-6.14
2022-12-15T05:56:04.399Z,-6.14
2022-12-15T05:57:04.390Z,-6.13
2022-12-15T05:58:04.379Z,-6.13
2022-12-15T05:59:04.367Z,-6.13
2022-12-15T06:00:04.341Z,-6.12
2022-12-15T06:01:04.356Z,-6.12
2022-12-15T06:02:04.404Z,-6.11
2022-12-15T06:03:04.375Z,-6.12
2022-12-15T06:04:04.302Z,-6.12
2022-12-15T06:05:04.349Z,-6.12
2022-12-15T06:06:04.290Z,-6.11
2022-12-15T06:07:04.272Z,-6.11
2022-12-15T06:08:04.252Z,-6.10
2022-12-15T06:09:04.272Z,-6.09
2022-12-15T06:10:04.259Z,-6.09
2022-12-15T06:11:04.259Z,-6.07
2022-12-15T06:12:04.208Z,-6.07
2022-12-15T06:13:04.209Z,-6.06
2022-12-15T06:14:04.195Z,-6.05
2022-12-15T06:15:04.197Z,-6.03
2022-12-15T06:16:04.280Z,-6.02
2022-12-15T06:17:04.171Z,-6.01
2022-12-15T06:18:04.143Z,-6.01
2022-12-15T06:19:04.152Z,-6.00
2022-12-15T06:20:04.135Z,-5.99
2022-12-15T06:21:04.146Z,-5.98
2022-12-15T06:22:04.096Z,-5.97
2022-12-15T06:23:04.105Z,-5.96
2022-12-15T06:24:04.079Z,-5.97
2022-12-15T06:25:04.088Z,-5.97
2022-12-15T06:26:04.052Z,-5.97
2022-12-15T06:27:04.079Z,-5.98
2022-12-15T06:28:04.067Z,-5.99
2022-12-15T06:29:04.036Z,-5.99
2022-12-15T06:30:04.016Z,-5.99
2022-12-15T06:31:04.094Z,-5.98
2022-12-15T06:32:04.010Z,-5.97
2022-12-15T06:33:04.018Z,-5.96
2022-12-15T06:34:03.968Z,-5.94
2022-12-15T06:35:04.003Z,-5.93
2022-12-15T06:36:03.947Z,-5.92
2022-12-15T06:37:03.949Z,-5.91
2022-12-15T06:38:03.947Z,-5.90
2022-12-15T06:39:03.928Z,-5.89
2022-12-15T06:40:03.894Z,-5.88
2022-12-15T06:41:03.909Z,-5.88
2022-12-15T06:42:03.879Z,-5.87
2022-12-15T06:43:03.881Z,-5.86
2022-12-15T06:44:03.883Z,-5.85
2022-12-15T06:45:03.873Z,-5.84
2022-12-15T06:46:03.838Z,-5.83
2022-12-15T06:47:03.972Z,-5.82
2022-12-15T06:48:03.815Z,-5.81
2022-12-15T06:49:03.830Z,-5.80
2022-12-15T06:50:03.791Z,-5.79
2022-12-15T06:51:03.818Z,-5.78
2022-12-15T06:52:03.757Z,-5.78
2022-12-15T06:53:03.785Z,-5.77
2022-12-15T06:54:03.757Z,-5.76
2022-12-15T06:55:03.776Z,-5.76
2022-12-15T06:56:03.734Z,-5.76
2022-12-15T06:57:03.726Z,-5.75
2022-12-15T06:58:03.698Z,-5.75
2022-12-15T06:59:03.798Z,-5.75
2022-12-15T07:00:03.691Z,-5.75
2022-12-15T07:01:03.700Z,-5.74
2022-12-15T07:02:03.835Z,-5.74
2022-12-15T07:03:03.968Z,-5.74
2022-12-15T07:04:03.724Z,-5.74
2022-12-15T07:05:03.668Z,-5.73
2022-12-15T07:06:03.624Z,-5.73
2022-12-15T07:07:03.634Z,-5.72
2022-12-15T07:08:03.592Z,-5.71
2022-12-15T07:09:03.595Z,-5.71
2022-12-15T07:10:03.563Z,-5.70
2022-12-15T07:11:03.601Z,-5.70
2022-12-15T07:12:03.567Z,-5.70
2022-12-15T07:13:03.556Z,-5.69
2022-12-15T07:14:03.526Z,-5.69
2022-12-15T07:15:03.524Z,-5.69
2022-12-15T07:16:03.557Z,-5.68
2022-12-15T07:17:03.506Z,-5.67
2022-12-15T07:18:03.478Z,-5.66
2022-12-15T07:19:03.503Z,-5.66
2022-12-15T07:20:03.453Z,-5.65
2022-12-15T07:21:03.481Z,-5.65
2022-12-15T07:22:03.446Z,-5.64
2022-12-15T07:23:03.444Z,-5.64
2022-12-15T07:24:04.011Z,-5.63
2022-12-15T07:25:03.413Z,-5.62
2022-12-15T07:26:09.599Z,-5.62
2022-12-15T07:27:04.424Z,-5.61
2022-12-15T07:28:03.363Z,-5.61
2022-12-15T07:29:03.374Z,-5.60
2022-12-15T07:30:03.342Z,-5.60
2022-12-15T07:31:03.378Z,-5.59
2022-12-15T07:32:03.424Z,-5.58
2022-12-15T07:33:03.323Z,-5.57
2022-12-15T07:34:03.314Z,-5.56
2022-12-15T07:35:03.334Z,-5.55
2022-12-15T07:36:03.349Z,-5.54
2022-12-15T07:37:03.316Z,-5.54
2022-12-15T07:38:03.265Z,-5.54
2022-12-15T07:39:03.956Z,-5.54
2022-12-15T07:40:03.234Z,-5.53
2022-12-15T07:41:03.246Z,-5.53
2022-12-15T07:42:03.220Z,-5.52
2022-12-15T07:43:03.246Z,-5.51
2022-12-15T07:44:03.186Z,-5.51
2022-12-15T07:45:03.199Z,-5.50
2022-12-15T07:46:03.264Z,-5.49
2022-12-15T07:47:03.224Z,-5.48
2022-12-15T07:48:03.143Z,-5.47
2022-12-15T07:49:03.208Z,-5.46
2022-12-15T07:50:03.160Z,-5.45
2022-12-15T07:51:09.508Z,-5.43
2022-12-15T07:52:04.110Z,-5.42
2022-12-15T07:53:03.112Z,-5.40
2022-12-15T07:54:03.118Z,-5.39
2022-12-15T07:55:03.091Z,-5.39
2022-12-15T07:56:08.641Z,-5.38
2022-12-15T07:57:04.070Z,-5.37
2022-12-15T07:58:03.060Z,-5.36
2022-12-15T07:59:03.056Z,-5.36
2022-12-15T08:00:03.011Z,-5.35
2022-12-15T08:01:03.041Z,-5.35
2022-12-15T08:02:03.215Z,-5.35
2022-12-15T08:03:03.170Z,-5.35
2022-12-15T08:04:03.134Z,-5.34
2022-12-15T08:05:03.030Z,-5.34
2022-12-15T08:06:04.344Z,-5.33
2022-12-15T08:07:02.950Z,-5.32
2022-12-15T08:08:02.940Z,-5.31
2022-12-15T08:09:02.939Z,-5.30
2022-12-15T08:10:02.940Z,-5.29
2022-12-15T08:11:02.919Z,-5.28
2022-12-15T08:12:02.909Z,-5.28
2022-12-15T08:13:02.891Z,-5.27
2022-12-15T08:14:04.322Z,-5.26
2022-12-15T08:15:02.874Z,-5.25
2022-12-15T08:16:02.884Z,-5.24
2022-12-15T08:17:02.953Z,-5.23
2022-12-15T08:18:02.877Z,-5.23
2022-12-15T08:19:02.841Z,-5.21
2022-12-15T08:20:09.475Z,-5.20
2022-12-15T08:21:03.801Z,-5.19
2022-12-15T08:22:02.783Z,-5.18
2022-12-15T08:23:02.790Z,-5.17
2022-12-15T08:24:02.749Z,-5.17
2022-12-15T08:25:02.762Z,-5.16
2022-12-15T08:26:02.731Z,-5.16
2022-12-15T08:27:02.750Z,-5.15
2022-12-15T08:28:02.714Z,-5.14
2022-12-15T08:29:24.591Z,-5.13
2022-12-15T08:30:03.712Z,-5.12
2022-12-15T08:31:02.698Z,-5.11
2022-12-15T08:32:02.706Z,-5.10
2022-12-15T08:33:02.678Z,-5.09
2022-12-15T08:34:02.658Z,-5.09
2022-12-15T08:35:02.669Z,-5.08
2022-12-15T08:36:02.619Z,-5.07
2022-12-15T08:37:02.621Z,-5.06
2022-12-15T08:38:05.627Z,-5.05
2022-12-15T08:39:02.624Z,-5.04
2022-12-15T08:40:02.587Z,-5.03
2022-12-15T08:41:02.599Z,-5.03
2022-12-15T08:42:02.555Z,-5.02
2022-12-15T08:43:02.535Z,-5.00
2022-12-15T08:44:02.568Z,-4.99
2022-12-15T08:45:02.529Z,-4.97
2022-12-15T08:46:02.614Z,-4.95
2022-12-15T08:47:02.496Z,-4.95
2022-12-15T08:48:02.503Z,-4.94
2022-12-15T08:49:02.492Z,-4.94
2022-12-15T08:50:02.497Z,-4.93
2022-12-15T08:51:02.457Z,-4.93
2022-12-15T08:52:02.476Z,-4.93
2022-12-15T08:53:29.473Z,-4.92
2022-12-15T08:54:03.454Z,-4.90
2022-12-15T08:55:02.412Z,-4.89
2022-12-15T08:56:02.417Z,-4.88
2022-12-15T08:57:02.390Z,-4.87
2022-12-15T08:58:02.415Z,-4.87
2022-12-15T08:59:02.395Z,-4.86
2022-12-15T09:00:02.409Z,-4.85
2022-12-15T09:01:02.366Z,-4.84
2022-12-15T09:02:02.476Z,-4.83
2022-12-15T09:03:02.317Z,-4.83
2022-12-15T09:04:02.366Z,-4.83
2022-12-15T09:05:02.318Z,-4.83
2022-12-15T09:06:02.321Z,-4.83
2022-12-15T09:07:02.278Z,-4.82
2022-12-15T09:08:06.517Z,-4.82
2022-12-15T09:09:02.258Z,-4.81
2022-12-15T09:10:02.287Z,-4.80
2022-12-15T09:11:02.226Z,-4.78
2022-12-15T09:12:02.240Z,-4.77
2022-12-15T09:13:02.242Z,-4.76
2022-12-15T09:14:02.229Z,-4.76
2022-12-15T09:15:02.206Z,-4.76
2022-12-15T09:16:10.986Z,-4.75
2022-12-15T09:17:03.198Z,-4.73
2022-12-15T09:18:02.175Z,-4.69
2022-12-15T09:19:02.145Z,-4.66
2022-12-15T09:20:02.166Z,-4.64
2022-12-15T09:21:02.128Z,-4.62
2022-12-15T09:22:02.241Z,-4.61
2022-12-15T09:23:02.083Z,-4.60
2022-12-15T09:24:02.241Z,-4.59
2022-12-15T09:25:02.072Z,-4.58
2022-12-15T09:26:02.100Z,-4.57
2022-12-15T09:27:02.054Z,-4.57
2022-12-15T09:28:02.065Z,-4.56
2022-12-15T09:29:02.140Z,-4.55
2022-12-15T09:30:02.056Z,-4.55
2022-12-15T09:31:02.092Z,-4.55
2022-12-15T09:32:02.024Z,-4.55
2022-12-15T09:33:01.992Z,-4.54
2022-12-15T09:34:02.014Z,-4.53
2022-12-15T09:35:01.967Z,-4.52
2022-12-15T09:36:01.978Z,-4.51
2022-12-15T09:37:01.960Z,-4.49
2022-12-15T09:38:01.951Z,-4.48
2022-12-15T09:39:02.043Z,-4.46
2022-12-15T09:40:01.938Z,-4.45
2022-12-15T09:41:01.901Z,-4.44
2022-12-15T09:42:01.901Z,-4.43
2022-12-15T09:43:32.875Z,-4.42
2022-12-15T09:44:02.911Z,-4.41
2022-12-15T09:45:01.843Z,-4.40
2022-12-15T09:46:01.924Z,-4.39
2022-12-15T09:47:01.832Z,-4.39
2022-12-15T09:48:01.847Z,-4.38
2022-12-15T09:49:01.804Z,-4.37
2022-12-15T09:50:01.833Z,-4.36
2022-12-15T09:51:01.785Z,-4.34
2022-12-15T09:52:07.227Z,-4.33
2022-12-15T09:53:02.773Z,-4.33
2022-12-15T09:54:02.233Z,-4.32
2022-12-15T09:55:01.969Z,-4.31
2022-12-15T09:56:01.790Z,-4.31
2022-12-15T09:57:01.727Z,-4.30
2022-12-15T09:58:06.032Z,-4.30
2022-12-15T09:59:02.694Z,-4.29
2022-12-15T10:00:01.710Z,-4.28
2022-12-15T10:01:01.679Z,-4.27
2022-12-15T10:02:01.913Z,-4.26
2022-12-15T10:03:01.908Z,-4.25
2022-12-15T10:04:01.781Z,-4.23
2022-12-15T10:05:01.640Z,-4.22
2022-12-15T10:06:20.150Z,-4.21
2022-12-15T10:07:02.615Z,-4.20
2022-12-15T10:08:01.618Z,-4.19
2022-12-15T10:09:01.593Z,-4.18
2022-12-15T10:10:01.637Z,-4.17
2022-12-15T10:11:01.589Z,-4.17
2022-12-15T10:12:01.581Z,-4.17
2022-12-15T10:13:02.711Z,-4.16
2022-12-15T10:14:01.559Z,-4.15
2022-12-15T10:15:01.550Z,-4.14
2022-12-15T10:16:01.559Z,-4.14
2022-12-15T10:17:01.526Z,-4.14
2022-12-15T10:18:01.511Z,-4.13
2022-12-15T10:19:02.138Z,-4.13
2022-12-15T10:20:01.483Z,-4.13
2022-12-15T10:21:01.455Z,-4.12
2022-12-15T10:22:01.460Z,-4.11
2022-12-15T10:23:01.528Z,-4.11
2022-12-15T10:24:01.813Z,-4.10
2022-12-15T10:25:11.120Z,-4.09
2022-12-15T10:26:02.427Z,-4.09
2022-12-15T10:27:01.390Z,-4.09
2022-12-15T10:28:01.420Z,-4.08
2022-12-15T10:29:01.373Z,-4.08
2022-12-15T10:30:01.541Z,-4.07
2022-12-15T10:31:01.391Z,-4.06
2022-12-15T10:32:01.393Z,-4.05
2022-12-15T10:33:01.337Z,-4.04
2022-12-15T10:34:01.388Z,-4.02
2022-12-15T10:35:01.387Z,-4.01
2022-12-15T10:36:01.291Z,-4.01
2022-12-15T10:37:01.271Z,-4.01
2022-12-15T10:38:01.281Z,-4.01
2022-12-15T10:39:01.276Z,-4.02
2022-12-15T10:40:01.261Z,-4.04
2022-12-15T10:41:01.238Z,-4.05
2022-12-15T10:42:01.237Z,-4.06
2022-12-15T10:43:01.200Z,-4.07
2022-12-15T10:44:01.249Z,-4.08
2022-12-15T10:45:01.187Z,-4.11
2022-12-15T10:46:01.301Z,-4.14
2022-12-15T10:47:01.158Z,-4.17
2022-12-15T10:48:01.300Z,-4.20
2022-12-15T10:49:01.177Z,-4.20
2022-12-15T10:50:01.131Z,-4.20
2022-12-15T10:51:01.128Z,-4.19
2022-12-15T10:52:01.126Z,-4.19
2022-12-15T10:53:01.088Z,-4.17
2022-12-15T10:54:01.542Z,-4.16
2022-12-15T10:55:01.068Z,-4.13
2022-12-15T10:56:01.070Z,-4.12
2022-12-15T10:57:01.059Z,-4.11
2022-12-15T10:58:01.057Z,-4.10
2022-12-15T10:59:01.048Z,-4.08
2022-12-15T11:00:01.059Z,-4.07
2022-12-15T11:01:00.998Z,-4.05
2022-12-15T11:02:01.067Z,-4.04
2022-12-15T11:03:01.401Z,-4.03
2022-12-15T11:04:01.218Z,-4.03
2022-12-15T11:05:01.013Z,-4.03
2022-12-15T11:06:00.950Z,-4.02
2022-12-15T11:07:01.068Z,-4.01
2022-12-15T11:08:00.988Z,-4.00
2022-12-15T11:09:00.918Z,-3.98
2022-12-15T11:10:00.929Z,-3.97
2022-12-15T11:11:00.928Z,-3.95
2022-12-15T11:12:00.921Z,-3.94
2022-12-15T11:13:00.869Z,-3.93
2022-12-15T11:14:00.872Z,-3.92
2022-12-15T11:15:00.851Z,-3.91
2022-12-15T11:16:00.873Z,-3.90
2022-12-15T11:17:00.824Z,-3.89
2022-12-15T11:18:00.839Z,-3.87
2022-12-15T11:19:00.911Z,-3.85
2022-12-15T11:20:03.065Z,-3.84
2022-12-15T11:21:00.802Z,-3.82
2022-12-15T11:22:00.781Z,-3.81
2022-12-15T11:23:00.754Z,-3.80
2022-12-15T11:24:00.760Z,-3.78
2022-12-15T11:25:00.748Z,-3.76
2022-12-15T11:26:06.761Z,-3.75
2022-12-15T11:27:01.722Z,-3.74
2022-12-15T11:28:00.717Z,-3.74
2022-12-15T11:29:00.686Z,-3.73
2022-12-15T11:30:00.709Z,-3.73
2022-12-15T11:31:00.699Z,-3.73
2022-12-15T11:32:06.773Z,-3.73
2022-12-15T11:33:01.640Z,-3.71
2022-12-15T11:34:00.668Z,-3.70
2022-12-15T11:35:00.627Z,-3.69
2022-12-15T11:36:00.621Z,-3.68
2022-12-15T11:37:00.651Z,-3.67
2022-12-15T11:38:00.619Z,-3.66
2022-12-15T11:39:00.995Z,-3.65
2022-12-15T11:40:00.578Z,-3.64
2022-12-15T11:41:00.551Z,-3.64
2022-12-15T11:42:00.587Z,-3.64
2022-12-15T11:43:00.561Z,-3.64
2022-12-15T11:44:04.323Z,-3.64
2022-12-15T11:45:01.512Z,-3.63
2022-12-15T11:46:00.533Z,-3.62
2022-12-15T11:47:00.497Z,-3.62
2022-12-15T11:48:00.485Z,-3.63
2022-12-15T11:49:00.491Z,-3.63
2022-12-15T11:50:00.475Z,-3.63
2022-12-15T11:51:00.448Z,-3.63
2022-12-15T11:52:00.454Z,-3.63
2022-12-15T11:53:00.434Z,-3.63
2022-12-15T11:54:00.428Z,-3.63
2022-12-15T11:55:00.405Z,-3.62
2022-12-15T11:56:00.422Z,-3.61
2022-12-15T11:57:00.375Z,-3.60
2022-12-15T11:58:00.378Z,-3.59
2022-12-15T11:59:00.381Z,-3.57
2022-12-15T12:00:00.371Z,-3.57
2022-12-15T12:01:00.342Z,-3.56
2022-12-15T12:02:03.364Z,-3.55
2022-12-15T12:03:00.357Z,-3.55
2022-12-15T12:04:00.304Z,-3.56
2022-12-15T12:05:00.299Z,-3.56
2022-12-15T12:06:00.310Z,-3.57
2022-12-15T12:07:00.264Z,-3.56
2022-12-15T12:08:00.263Z,-3.57
2022-12-15T12:09:00.236Z,-3.58
2022-12-15T12:10:00.264Z,-3.59
2022-12-15T12:11:00.258Z,-3.61
2022-12-15T12:12:00.231Z,-3.61
2022-12-15T12:13:00.208Z,-3.62
2022-12-15T12:14:00.211Z,-3.64
2022-12-15T12:15:00.193Z,-3.66
2022-12-15T12:16:00.175Z,-3.67
2022-12-15T12:17:00.165Z,-3.67
2022-12-15T12:18:00.153Z,-3.66
2022-12-15T12:19:00.288Z,-3.64
2022-12-15T12:20:00.161Z,-3.63
2022-12-15T12:21:00.108Z,-3.63
2022-12-15T12:22:00.111Z,-3.63
2022-12-15T12:23:00.187Z,-3.62
2022-12-15T12:24:00.092Z,-3.61
2022-12-15T12:25:00.127Z,-3.59
2022-12-15T12:26:03.166Z,-3.57
2022-12-15T12:27:00.081Z,-3.54
2022-12-15T12:28:00.047Z,-3.51
2022-12-15T12:29:00.038Z,-3.48
2022-12-15T12:30:00.012Z,-3.46
2022-12-15T12:31:00.018Z,-3.43
2022-12-15T12:32:04.569Z,-3.41
2022-12-15T12:33:00.971Z,-3.39
2022-12-15T12:33:59.967Z,-3.38
2022-12-15T12:35:31.023Z,-3.36
2022-12-15T12:36:01.013Z,-3.35
2022-12-15T12:36:59.931Z,-3.34
2022-12-15T12:38:03.385Z,-3.33
2022-12-15T12:38:59.905Z,-3.32
2022-12-15T12:39:59.909Z,-3.32
2022-12-15T12:40:59.914Z,-3.31
2022-12-15T12:41:59.891Z,-3.30
2022-12-15T12:42:59.866Z,-3.30
2022-12-15T12:43:59.861Z,-3.32
2022-12-15T12:44:59.837Z,-3.34
2022-12-15T12:45:59.844Z,-3.35
2022-12-15T12:46:59.869Z,-3.36
2022-12-15T12:47:59.827Z,-3.38
2022-12-15T12:48:59.788Z,-3.39
2022-12-15T12:49:59.822Z,-3.40
2022-12-15T12:50:59.773Z,-3.40
2022-12-15T12:51:59.799Z,-3.41